createdAt,value
2023-01-11T00:00:05.501Z,8.62
2023-01-11T00:05:09.168Z,8.85
2023-01-11T00:10:08.150Z,8.57
2023-01-11T00:15:05.967Z,8.50
2023-01-11T00:20:03.513Z,8.77
2023-01-11T00:25:00.448Z,8.63
2023-01-11T00:29:58.141Z,8.60
2023-01-11T00:34:54.958Z,8.57
2023-01-11T00:39:51.988Z,8.39
2023-01-11T00:45:06.536Z,8.28
2023-01-11T00:50:04.799Z,8.61
2023-01-11T00:55:01.803Z,8.33
2023-01-11T00:59:58.706Z,8.46
2023-01-11T01:04:55.685Z,8.49
2023-01-11T01:09:53.196Z,8.58
2023-01-11T01:14:50.219Z,8.46
2023-01-11T01:19:47.012Z,8.55
2023-01-11T01:24:43.981Z,8.40
2023-01-11T01:29:41.609Z,8.39
2023-01-11T01:34:38.529Z,8.44
2023-01-11T01:39:35.444Z,8.02
2023-01-11T01:44:54.175Z,8.43
2023-01-11T01:49:51.405Z,7.96
2023-01-11T01:54:49.345Z,8.24
2023-01-11T01:59:51.130Z,8.38
2023-01-11T02:04:49.630Z,8.14
2023-01-11T02:09:52.166Z,8.38
2023-01-11T02:14:49.473Z,8.38
2023-01-11T02:19:55.210Z,8.03
2023-01-11T02:24:59.964Z,8.36
2023-01-11T02:30:14.164Z,7.94
2023-01-11T02:35:20.336Z,8.24
2023-01-11T02:40:25.234Z,8.31
2023-01-11T02:45:37.658Z,8.28
2023-01-11T02:50:41.451Z,8.08
2023-01-11T02:55:41.920Z,8.03
2023-01-11T03:00:40.957Z,8.13
2023-01-11T03:05:41.789Z,8.26
2023-01-11T03:10:49.852Z,8.17
2023-01-11T03:16:03.818Z,8.25
2023-01-11T03:21:14.427Z,8.00
2023-01-11T03:26:20.280Z,8.18
2023-01-11T03:31:22.943Z,7.93
2023-01-11T03:36:23.343Z,7.74
2023-01-11T03:41:24.817Z,8.12
2023-01-11T03:46:28.123Z,7.93
2023-01-11T03:51:28.391Z,7.81
2023-01-11T03:56:32.899Z,8.08
2023-01-11T04:01:30.838Z,8.10
2023-01-11T04:06:27.870Z,7.57
2023-01-11T04:11:24.929Z,7.87
2023-01-11T04:16:22.179Z,7.99
2023-01-11T04:21:20.122Z,8.06
2023-01-11T04:26:17.501Z,8.06
2023-01-11T04:31:14.768Z,7.49
2023-01-11T04:36:15.160Z,7.51
2023-01-11T04:41:33.161Z,7.81
2023-01-11T04:46:31.411Z,8.03
2023-01-11T04:51:28.789Z,7.68
2023-01-11T04:56:31.583Z,8.00
2023-01-11T05:01:30.267Z,7.82
2023-01-11T05:06:45.072Z,7.67
2023-01-11T05:11:43.756Z,7.62
2023-01-11T05:16:52.275Z,7.42
2023-01-11T05:21:54.902Z,7.36
2023-01-11T05:27:25.310Z,7.85
2023-01-11T05:32:27.618Z,7.98
2023-01-11T05:37:33.580Z,8.00
2023-01-11T05:42:36.579Z,7.39
2023-01-11T05:47:34.373Z,8.00
2023-01-11T05:52:32.447Z,7.42
2023-01-11T05:57:30.558Z,7.46
2023-01-11T06:02:38.616Z,8.00
2023-01-11T06:07:39.160Z,7.67
2023-01-11T06:12:39.659Z,7.62
2023-01-11T06:17:37.883Z,7.81
2023-01-11T06:22:37.341Z,8.03
2023-01-11T06:27:40.079Z,7.37
2023-01-11T06:32:38.251Z,7.94
2023-01-11T06:37:38.540Z,7.97
2023-01-11T06:42:39.168Z,7.60
2023-01-11T06:47:44.325Z,7.80
2023-01-11T06:52:41.954Z,7.77
2023-01-11T06:57:43.024Z,8.21
2023-01-11T07:02:41.067Z,8.00
2023-01-11T07:07:38.625Z,8.11
2023-01-11T07:12:36.094Z,8.31
2023-01-11T07:17:36.420Z,8.03
2023-01-11T07:22:37.655Z,8.22
2023-01-11T07:27:34.586Z,8.29
2023-01-11T07:32:31.907Z,8.38
2023-01-11T07:37:32.161Z,8.34
2023-01-11T07:42:49.844Z,8.10
2023-01-11T07:47:50.348Z,8.12
2023-01-11T07:52:48.304Z,8.28
2023-01-11T07:57:46.744Z,8.17
2023-01-11T08:02:44.426Z,8.27
2023-01-11T08:07:42.547Z,8.02
2023-01-11T08:13:06.590Z,8.43
2023-01-11T08:18:07.653Z,8.48
2023-01-11T08:23:05.988Z,8.59
2023-01-11T08:28:07.865Z,8.28
2023-01-11T08:33:06.459Z,8.79
2023-01-11T08:38:04.141Z,8.68
2023-01-11T08:43:07.464Z,8.88
2023-01-11T08:48:07.950Z,8.38
2023-01-11T08:53:06.550Z,8.98
2023-01-11T08:58:04.793Z,8.65
2023-01-11T09:03:03.806Z,9.21
2023-01-11T09:08:01.459Z,9.08
2023-01-11T09:13:01.217Z,8.63
2023-01-11T09:17:59.443Z,9.19
2023-01-11T09:22:57.064Z,9.29
2023-01-11T09:27:54.379Z,9.42
2023-01-11T09:32:52.529Z,9.37
2023-01-11T09:37:55.978Z,9.45
2023-01-11T09:42:56.992Z,9.41
2023-01-11T09:48:10.720Z,9.50
2023-01-11T09:53:15.854Z,9.30
2023-01-11T09:58:51.127Z,8.92
2023-01-11T10:04:35.683Z,9.25
2023-01-11T10:18:32.763Z,9.09
2023-01-11T10:20:43.595Z,9.25
2023-01-11T10:25:51.130Z,8.97
2023-01-11T10:31:07.740Z,9.09
2023-01-11T10:36:38.096Z,9.47
2023-01-11T10:48:03.559Z,9.38
2023-01-11T10:53:07.851Z,8.93
2023-01-11T10:58:14.947Z,9.40
2023-01-11T11:03:53.018Z,9.33
2023-01-11T11:08:55.889Z,9.18
2023-01-11T11:13:58.417Z,9.22
2023-01-11T11:18:59.311Z,9.29
2023-01-11T11:24:00.341Z,9.29
2023-01-11T11:29:02.974Z,9.31
2023-01-11T11:34:06.358Z,8.95
2023-01-11T11:39:11.182Z,8.95
2023-01-11T11:44:17.315Z,9.30
2023-01-11T11:49:17.498Z,9.02
2023-01-11T11:54:21.432Z,8.99
2023-01-11T11:59:21.877Z,9.12
2023-01-11T12:04:31.629Z,8.98
2023-01-11T12:09:31.262Z,8.78
2023-01-11T12:14:30.264Z,8.75
2023-01-11T12:19:33.751Z,8.95
2023-01-11T12:24:31.258Z,8.54
2023-01-11T12:29:53.648Z,8.60
2023-01-11T12:35:09.712Z,8.76
2023-01-11T12:40:12.795Z,8.69
2023-01-11T12:45:21.098Z,8.22
2023-01-11T12:50:24.552Z,8.00
2023-01-11T12:55:53.686Z,7.55
2023-01-11T13:01:12.020Z,6.34
2023-01-11T13:06:14.211Z,6.37
2023-01-11T13:11:34.843Z,5.70
2023-01-11T13:16:40.881Z,5.91
2023-01-11T13:21:52.908Z,5.48
2023-01-11T13:26:50.816Z,5.29
2023-01-11T13:31:50.431Z,5.48
2023-01-11T13:36:54.579Z,4.53
2023-01-11T13:42:02.832Z,5.27
2023-01-11T13:47:23.718Z,4.28
2023-01-11T13:52:41.288Z,4.82
2023-01-11T13:57:45.748Z,4.50
2023-01-11T14:02:48.396Z,4.15
2023-01-11T14:08:14.780Z,4.62
2023-01-11T14:14:08.067Z,3.83
2023-01-11T14:19:23.383Z,3.92
2023-01-11T14:24:31.333Z,3.68
2023-01-11T14:29:50.508Z,3.69
2023-01-11T14:35:32.633Z,3.79
2023-01-11T14:41:04.886Z,3.25
2023-01-11T14:46:39.244Z,3.94
2023-01-11T14:51:55.399Z,3.65
2023-01-11T14:57:05.713Z,3.64
2023-01-11T15:02:34.220Z,3.85
2023-01-11T15:07:54.437Z,3.03
2023-01-11T15:13:33.898Z,3.80
2023-01-11T15:18:32.226Z,3.54
2023-01-11T15:23:39.964Z,2.77
2023-01-11T15:28:54.561Z,3.17
2023-01-11T15:34:00.957Z,2.89
2023-01-11T15:39:03.323Z,3.45
2023-01-11T15:44:18.955Z,3.38
2023-01-11T15:50:24.301Z,2.67
2023-01-11T15:56:28.127Z,2.58
2023-01-11T16:01:55.580Z,2.88
2023-01-11T16:07:24.983Z,3.03
2023-01-11T16:12:45.526Z,3.29
2023-01-11T16:17:46.250Z,2.75
2023-01-11T16:22:51.780Z,2.58
2023-01-11T16:28:00.142Z,2.65
2023-01-11T16:33:18.411Z,2.49
2023-01-11T16:38:19.698Z,3.00
2023-01-11T16:43:20.686Z,2.77
2023-01-11T16:48:24.496Z,2.88
2023-01-11T16:53:25.465Z,2.41
2023-01-11T16:58:28.267Z,2.51
2023-01-11T17:03:35.325Z,2.61
2023-01-11T17:08:34.728Z,2.90
2023-01-11T17:14:08.211Z,2.47
2023-01-11T17:19:13.327Z,2.25
2023-01-11T17:24:16.179Z,2.77
2023-01-11T17:29:18.509Z,2.45
2023-01-11T17:34:23.626Z,1.88
2023-01-11T17:39:24.925Z,2.52
2023-01-11T17:44:42.057Z,1.87
2023-01-11T17:49:40.960Z,1.72
2023-01-11T17:54:40.888Z,2.37
2023-01-11T17:59:37.941Z,2.52
2023-01-11T18:04:35.343Z,2.54
2023-01-11T18:09:37.664Z,2.17
2023-01-11T18:14:44.545Z,2.02
2023-01-11T18:19:44.169Z,1.98
2023-01-11T18:24:44.580Z,2.23
2023-01-11T18:29:49.296Z,2.29
2023-01-11T18:34:53.322Z,1.80
2023-01-11T18:39:52.571Z,1.88
2023-01-11T18:44:50.930Z,1.58
2023-01-11T18:49:48.998Z,2.23
2023-01-11T18:54:47.016Z,2.27
2023-01-11T18:59:44.874Z,1.96
2023-01-11T19:04:42.126Z,1.96
2023-01-11T19:09:39.294Z,1.48
2023-01-11T19:14:36.694Z,2.13
2023-01-11T19:19:35.719Z,1.34
2023-01-11T19:24:33.352Z,1.88
2023-01-11T19:29:31.087Z,1.66
2023-01-11T19:34:29.704Z,1.71
2023-01-11T19:39:27.460Z,2.02
2023-01-11T19:44:26.783Z,1.36
2023-01-11T19:49:24.084Z,2.02
2023-01-11T19:54:22.748Z,1.81
2023-01-11T19:59:21.296Z,1.64
2023-01-11T20:04:18.398Z,1.86
2023-01-11T20:09:15.286Z,1.93
2023-01-11T20:14:13.857Z,1.42
2023-01-11T20:19:13.203Z,1.88
2023-01-11T20:24:12.617Z,1.97
2023-01-11T20:29:10.616Z,1.58
2023-01-11T20:34:10.340Z,1.44
2023-01-11T20:39:08.977Z,2.07
2023-01-11T20:44:08.182Z,1.88
2023-01-11T20:49:06.509Z,2.01
2023-01-11T20:54:04.380Z,1.26
2023-01-11T20:59:06.709Z,1.36
2023-01-11T21:04:06.201Z,1.93
2023-01-11T21:09:05.658Z,1.75
2023-01-11T21:14:04.510Z,1.67
2023-01-11T21:19:02.689Z,1.65
2023-01-11T21:24:01.578Z,1.76
2023-01-11T21:29:00.358Z,1.65
2023-01-11T21:34:02.850Z,1.90
2023-01-11T21:39:01.989Z,1.67
2023-01-11T21:44:00.452Z,1.13
2023-01-11T21:49:00.446Z,1.86
2023-01-11T21:53:57.959Z,1.40
2023-01-11T21:58:55.198Z,1.42
2023-01-11T22:03:52.200Z,1.82
2023-01-11T22:08:49.931Z,1.86
2023-01-11T22:13:46.862Z,1.83
2023-01-11T22:18:45.382Z,1.02
2023-01-11T22:23:42.325Z,1.41
2023-01-11T22:28:54.906Z,1.51
2023-01-11T22:33:52.139Z,1.60
2023-01-11T22:38:49.259Z,1.43
2023-01-11T22:43:47.438Z,1.15
2023-01-11T22:48:46.315Z,1.36
2023-01-11T22:53:45.875Z,1.17
2023-01-11T22:58:42.673Z,1.83
2023-01-11T23:03:40.491Z,1.82
2023-01-11T23:08:40.317Z,1.79
2023-01-11T23:13:52.607Z,1.78
2023-01-11T23:18:50.331Z,1.13
2023-01-11T23:23:47.735Z,1.59
2023-01-11T23:28:45.504Z,1.50
2023-01-11T23:33:42.599Z,1.79
2023-01-11T23:38:40.722Z,1.12
2023-01-11T23:43:38.187Z,1.78
2023-01-11T23:48:35.126Z,1.07
2023-01-11T23:53:32.059Z,1.71
2023-01-11T23:58:30.755Z,1.22
